createdAt,value
2022-12-11T00:00:54.562Z,77.98
2022-12-11T00:03:21.633Z,77.45
2022-12-11T00:05:48.483Z,77.50
2022-12-11T00:08:16.218Z,78.22
2022-12-11T00:10:49.924Z,76.92
2022-12-11T00:13:17.063Z,78.36
2022-12-11T00:15:43.846Z,77.45
2022-12-11T00:18:13.503Z,77.56
2022-12-11T00:20:40.870Z,77.29
2022-12-11T00:23:07.830Z,76.16
2022-12-11T00:25:34.596Z,76.37
2022-12-11T00:28:01.220Z,77.48
2022-12-11T00:30:27.836Z,78.53
2022-12-11T00:32:54.857Z,78.04
2022-12-11T00:35:21.610Z,77.44
2022-12-11T00:37:48.318Z,77.64
2022-12-11T00:40:15.491Z,76.86
2022-12-11T00:42:42.186Z,77.42
2022-12-11T00:45:09.503Z,76.90
2022-12-11T00:47:36.431Z,77.26
2022-12-11T00:50:03.196Z,76.93
2022-12-11T00:52:29.889Z,76.29
2022-12-11T00:54:56.542Z,76.81
2022-12-11T00:57:23.244Z,76.10
2022-12-11T00:59:49.856Z,75.67
2022-12-11T01:02:16.563Z,76.85
2022-12-11T01:04:43.113Z,76.17
2022-12-11T01:07:09.759Z,76.46
2022-12-11T01:09:36.442Z,76.48
2022-12-11T01:12:03.525Z,77.16
2022-12-11T01:14:30.113Z,76.71
2022-12-11T01:16:56.870Z,76.05
2022-12-11T01:19:23.494Z,76.10
2022-12-11T01:21:50.221Z,77.03
2022-12-11T01:24:16.901Z,77.06
2022-12-11T01:26:43.604Z,76.98
2022-12-11T01:29:10.267Z,76.63
2022-12-11T01:31:37.149Z,76.55
2022-12-11T01:34:03.884Z,76.31
2022-12-11T01:36:30.672Z,76.95
2022-12-11T01:38:57.452Z,77.57
2022-12-11T01:41:24.159Z,76.64
2022-12-11T01:43:57.987Z,76.35
2022-12-11T01:46:25.670Z,76.87
2022-12-11T01:48:53.621Z,76.98
2022-12-11T01:51:21.082Z,76.95
2022-12-11T01:53:55.507Z,77.32
2022-12-11T01:56:22.948Z,77.26
2022-12-11T01:58:55.100Z,78.08
2022-12-11T02:01:37.178Z,76.85
2022-12-11T02:04:04.542Z,76.97
2022-12-11T02:06:35.110Z,76.58
2022-12-11T02:09:02.851Z,76.63
2022-12-11T02:11:39.918Z,75.97
2022-12-11T02:14:25.104Z,75.64
2022-12-11T02:17:06.835Z,75.68
2022-12-11T02:19:56.782Z,75.25
2022-12-11T02:22:48.563Z,74.91
2022-12-11T02:25:30.500Z,74.68
2022-12-11T02:28:18.502Z,74.65
2022-12-11T02:30:51.398Z,73.84
2022-12-11T02:33:23.445Z,74.35
2022-12-11T02:35:50.730Z,74.30
2022-12-11T02:38:26.417Z,74.57
2022-12-11T02:40:57.438Z,74.76
2022-12-11T02:43:25.785Z,75.37
2022-12-11T02:45:54.507Z,75.27
2022-12-11T02:48:24.147Z,75.21
2022-12-11T02:50:55.726Z,75.61
2022-12-11T02:53:28.743Z,75.01
2022-12-11T02:56:06.523Z,75.20
2022-12-11T02:58:39.807Z,75.13
2022-12-11T03:01:06.745Z,75.15
2022-12-11T03:03:33.396Z,75.18
2022-12-11T03:06:00.122Z,75.61
2022-12-11T03:08:26.846Z,75.47
2022-12-11T03:10:53.608Z,74.81
2022-12-11T03:13:22.736Z,74.90
2022-12-11T03:16:02.656Z,74.82
2022-12-11T03:18:49.520Z,73.91
2022-12-11T03:21:33.089Z,74.18
2022-12-11T03:24:27.218Z,73.52
2022-12-11T03:27:00.979Z,73.96
2022-12-11T03:29:42.966Z,73.39
2022-12-11T03:32:19.488Z,73.95
2022-12-11T03:35:23.708Z,73.93
2022-12-11T03:37:53.244Z,73.85
2022-12-11T03:40:23.237Z,74.46
2022-12-11T03:42:52.263Z,74.21
2022-12-11T03:45:22.550Z,74.15
2022-12-11T03:47:52.172Z,74.30
2022-12-11T03:50:20.427Z,74.26
2022-12-11T03:52:48.048Z,74.65
2022-12-11T03:55:17.538Z,73.82
2022-12-11T03:57:44.592Z,73.13
2022-12-11T04:00:15.365Z,73.11
2022-12-11T04:02:42.842Z,72.69
2022-12-11T04:05:11.214Z,73.23
2022-12-11T04:07:38.157Z,72.94
2022-12-11T04:10:06.100Z,73.91
2022-12-11T04:12:33.045Z,75.17
2022-12-11T04:14:59.703Z,75.36
2022-12-11T04:17:26.477Z,74.53
2022-12-11T04:19:53.024Z,73.97
2022-12-11T04:22:19.978Z,73.95
2022-12-11T04:24:49.878Z,73.19
2022-12-11T04:27:18.326Z,74.07
2022-12-11T04:29:44.985Z,74.21
2022-12-11T04:32:11.622Z,74.18
2022-12-11T04:34:38.267Z,73.60
2022-12-11T04:37:04.947Z,72.49
2022-12-11T04:39:31.571Z,73.52
2022-12-11T04:41:58.296Z,73.62
2022-12-11T04:44:24.921Z,73.02
2022-12-11T04:46:51.696Z,72.80
2022-12-11T04:49:18.346Z,73.12
2022-12-11T04:51:45.301Z,73.10
2022-12-11T04:54:11.869Z,72.90
2022-12-11T04:56:38.572Z,73.34
2022-12-11T04:59:05.179Z,72.42
2022-12-11T05:01:31.925Z,72.92
2022-12-11T05:03:59.674Z,73.03
2022-12-11T05:06:26.439Z,73.49
2022-12-11T05:08:53.180Z,73.10
2022-12-11T05:11:20.035Z,73.24
2022-12-11T05:13:46.767Z,73.20
2022-12-11T05:16:15.807Z,73.12
2022-12-11T05:18:42.987Z,73.08
2022-12-11T05:21:12.668Z,73.23
2022-12-11T05:23:39.518Z,72.30
2022-12-11T05:26:11.098Z,73.13
2022-12-11T05:28:38.903Z,72.20
2022-12-11T05:31:09.489Z,71.72
2022-12-11T05:33:36.284Z,71.99
2022-12-11T05:36:03.596Z,71.61
2022-12-11T05:38:30.743Z,71.89
2022-12-11T05:41:02.343Z,71.71
2022-12-11T05:43:32.543Z,72.09
2022-12-11T05:46:12.991Z,71.71
2022-12-11T05:48:40.662Z,71.35
2022-12-11T05:51:07.863Z,70.79
2022-12-11T05:53:36.814Z,70.61
2022-12-11T05:56:19.484Z,70.04
2022-12-11T05:58:47.081Z,69.64
2022-12-11T06:01:19.393Z,69.22
2022-12-11T06:03:46.535Z,69.37
2022-12-11T06:06:13.355Z,69.43
2022-12-11T06:08:40.181Z,69.21
2022-12-11T06:11:08.254Z,68.47
2022-12-11T06:13:35.615Z,68.95
2022-12-11T06:16:10.694Z,69.26
2022-12-11T06:18:39.434Z,70.01
2022-12-11T06:21:15.961Z,68.98
2022-12-11T06:23:43.938Z,69.44
2022-12-11T06:26:11.293Z,69.08
2022-12-11T06:28:38.540Z,69.20
2022-12-11T06:31:05.715Z,68.86
2022-12-11T06:33:32.623Z,69.24
2022-12-11T06:36:07.831Z,69.65
2022-12-11T06:38:34.585Z,69.72
2022-12-11T06:41:02.625Z,69.32
2022-12-11T06:43:29.274Z,69.74
2022-12-11T06:46:00.616Z,69.09
2022-12-11T06:48:30.278Z,68.57
2022-12-11T06:50:56.833Z,68.79
2022-12-11T06:53:23.593Z,68.43
2022-12-11T06:55:50.202Z,68.16
2022-12-11T06:58:17.019Z,69.15
2022-12-11T07:00:43.625Z,68.76
2022-12-11T07:03:10.655Z,68.54
2022-12-11T07:05:37.227Z,67.52
2022-12-11T07:08:03.922Z,68.12
2022-12-11T07:10:30.620Z,68.21
2022-12-11T07:12:57.263Z,67.16
2022-12-11T07:15:23.847Z,67.00
2022-12-11T07:17:50.573Z,67.34
2022-12-11T07:20:17.332Z,67.36
2022-12-11T07:22:46.597Z,67.28
2022-12-11T07:25:14.625Z,65.46
2022-12-11T07:27:41.569Z,65.03
2022-12-11T07:30:09.507Z,64.79
2022-12-11T07:32:36.437Z,63.40
2022-12-11T07:35:04.114Z,63.52
2022-12-11T07:37:30.763Z,63.00
2022-12-11T07:39:57.424Z,62.40
2022-12-11T07:42:24.472Z,63.79
2022-12-11T07:44:51.067Z,63.46
2022-12-11T07:47:17.753Z,64.64
2022-12-11T07:49:44.343Z,64.47
2022-12-11T07:52:10.975Z,64.27
2022-12-11T07:54:37.671Z,64.20
2022-12-11T07:57:04.887Z,62.29
2022-12-11T07:59:33.037Z,61.85
2022-12-11T08:01:59.968Z,59.81
2022-12-11T08:04:26.915Z,60.32
2022-12-11T08:06:53.610Z,61.23
2022-12-11T08:09:21.432Z,62.01
2022-12-11T08:11:49.713Z,63.19
2022-12-11T08:14:16.437Z,63.06
2022-12-11T08:16:43.236Z,63.32
2022-12-11T08:19:11.855Z,62.99
2022-12-11T08:21:39.367Z,62.77
2022-12-11T08:24:06.427Z,62.79
2022-12-11T08:26:33.240Z,62.83
2022-12-11T08:29:01.435Z,60.62
2022-12-11T08:31:28.713Z,60.10
2022-12-11T08:33:57.466Z,58.41
2022-12-11T08:36:27.264Z,58.05
2022-12-11T08:38:55.581Z,58.46
2022-12-11T08:41:28.682Z,58.91
2022-12-11T08:43:56.552Z,59.92
2022-12-11T08:46:29.894Z,61.66
2022-12-11T08:48:56.948Z,59.85
2022-12-11T08:51:25.909Z,59.37
2022-12-11T08:53:55.894Z,58.68
2022-12-11T08:56:22.967Z,58.37
2022-12-11T08:58:50.535Z,58.77
2022-12-11T09:01:23.129Z,58.84
2022-12-11T09:03:51.804Z,59.22
2022-12-11T09:06:20.819Z,61.53
2022-12-11T09:08:52.686Z,62.22
2022-12-11T09:11:23.277Z,60.64
2022-12-11T09:13:51.062Z,60.05
2022-12-11T09:16:20.074Z,59.19
2022-12-11T09:18:48.329Z,60.35
2022-12-11T09:21:18.058Z,60.44
2022-12-11T09:23:45.035Z,60.41
2022-12-11T09:26:14.730Z,60.99
2022-12-11T09:28:46.303Z,61.40
2022-12-11T09:31:17.059Z,60.97
2022-12-11T09:33:44.070Z,61.16
2022-12-11T09:36:11.882Z,62.11
2022-12-11T09:38:39.108Z,62.07
2022-12-11T09:41:20.996Z,61.35
2022-12-11T09:43:50.784Z,61.15
2022-12-11T09:46:18.543Z,61.16
2022-12-11T09:48:52.260Z,62.05
2022-12-11T09:51:27.112Z,63.48
2022-12-11T09:53:59.517Z,63.44
2022-12-11T09:56:34.590Z,63.56
2022-12-11T09:59:30.535Z,63.56
2022-12-11T10:02:36.580Z,63.84
2022-12-11T10:05:21.771Z,64.16
2022-12-11T10:08:12.024Z,64.28
2022-12-11T10:10:43.172Z,65.05
2022-12-11T10:13:12.977Z,64.54
2022-12-11T10:15:57.287Z,64.36
2022-12-11T10:18:27.827Z,64.49
2022-12-11T10:20:55.297Z,65.18
2022-12-11T10:23:29.731Z,66.35
2022-12-11T10:26:03.648Z,66.64
2022-12-11T10:28:30.667Z,66.45
2022-12-11T10:31:03.322Z,65.85
2022-12-11T10:33:38.623Z,66.22
2022-12-11T10:36:08.723Z,66.47
2022-12-11T10:38:42.589Z,66.74
2022-12-11T10:41:19.571Z,67.46
2022-12-11T10:43:49.294Z,67.41
2022-12-11T10:46:24.396Z,67.52
2022-12-11T10:48:54.323Z,66.84
2022-12-11T10:51:34.767Z,66.66
2022-12-11T10:54:30.737Z,67.06
2022-12-11T10:56:58.779Z,68.23
2022-12-11T10:59:46.484Z,68.45
2022-12-11T11:02:25.669Z,67.29
2022-12-11T11:04:54.392Z,67.14
2022-12-11T11:07:27.554Z,68.56
2022-12-11T11:10:12.729Z,68.22
2022-12-11T11:12:45.739Z,67.75
2022-12-11T11:15:39.212Z,67.44
2022-12-11T11:18:22.700Z,67.43
2022-12-11T11:20:49.423Z,68.46
2022-12-11T11:23:18.483Z,67.72
2022-12-11T11:25:55.491Z,68.07
2022-12-11T11:28:46.671Z,68.37
2022-12-11T11:31:15.525Z,68.24
2022-12-11T11:34:05.911Z,67.82
2022-12-11T11:36:34.938Z,67.66
2022-12-11T11:39:23.163Z,67.57
2022-12-11T11:41:58.858Z,67.47
2022-12-11T11:44:32.964Z,68.76
2022-12-11T11:47:22.010Z,68.86
2022-12-11T11:50:00.767Z,67.83
2022-12-11T11:52:35.174Z,68.66
2022-12-11T11:55:21.664Z,68.80
2022-12-11T11:58:09.414Z,69.49
2022-12-11T12:00:36.372Z,70.03
2022-12-11T12:03:11.371Z,69.47
2022-12-11T12:05:41.053Z,70.66
2022-12-11T12:08:13.919Z,70.42
2022-12-11T12:10:55.646Z,69.66
2022-12-11T12:13:51.884Z,70.76
2022-12-11T12:16:53.016Z,70.31
2022-12-11T12:19:42.605Z,69.99
2022-12-11T12:22:24.340Z,70.05
2022-12-11T12:25:00.121Z,70.53
2022-12-11T12:28:09.113Z,71.07
2022-12-11T12:31:01.651Z,71.56
2022-12-11T12:33:57.753Z,72.31
2022-12-11T12:36:42.959Z,72.30
2022-12-11T12:39:47.141Z,71.79
2022-12-11T12:42:28.448Z,71.72
2022-12-11T12:45:02.134Z,72.91
2022-12-11T12:47:33.517Z,73.03
2022-12-11T12:50:02.447Z,73.32
2022-12-11T12:52:36.287Z,72.14
2022-12-11T12:55:23.293Z,72.23
2022-12-11T12:57:59.653Z,71.21
2022-12-11T13:00:26.288Z,71.02
2022-12-11T13:02:53.551Z,69.84
2022-12-11T13:05:24.947Z,68.32
2022-12-11T13:07:55.994Z,68.27
2022-12-11T13:10:30.160Z,66.03
2022-12-11T13:12:57.143Z,64.43
2022-12-11T13:15:41.977Z,67.04
2022-12-11T13:18:34.163Z,66.21
2022-12-11T13:21:02.693Z,66.76
2022-12-11T13:23:32.093Z,67.97
2022-12-11T13:26:01.598Z,68.33
2022-12-11T13:28:31.398Z,68.72
2022-12-11T13:31:03.740Z,68.02
2022-12-11T13:33:32.327Z,67.16
2022-12-11T13:36:32.609Z,65.16
2022-12-11T13:39:07.829Z,66.00
2022-12-11T13:41:37.459Z,66.31
2022-12-11T13:44:06.063Z,66.17
2022-12-11T13:46:37.258Z,66.38
2022-12-11T13:49:07.110Z,67.18
2022-12-11T13:51:34.931Z,67.59
2022-12-11T13:54:06.158Z,65.96
2022-12-11T13:56:32.961Z,64.78
2022-12-11T13:58:59.573Z,65.42
2022-12-11T14:01:30.695Z,64.82
2022-12-11T14:04:10.734Z,64.77
2022-12-11T14:06:39.804Z,66.35
2022-12-11T14:09:08.448Z,67.85
2022-12-11T14:11:40.568Z,67.86
2022-12-11T14:14:23.352Z,68.48
2022-12-11T14:16:53.674Z,70.02
2022-12-11T14:19:22.406Z,70.85
2022-12-11T14:21:57.751Z,70.57
2022-12-11T14:24:25.303Z,70.99
2022-12-11T14:26:54.156Z,71.27
2022-12-11T14:29:31.708Z,70.98
2022-12-11T14:32:04.590Z,71.66
2022-12-11T14:34:45.405Z,71.20
2022-12-11T14:37:15.741Z,71.05
2022-12-11T14:39:55.335Z,72.45
2022-12-11T14:42:33.944Z,72.36
2022-12-11T14:45:21.319Z,73.12
2022-12-11T14:47:48.429Z,73.33
2022-12-11T14:50:19.664Z,73.31
2022-12-11T14:52:50.914Z,73.14
2022-12-11T14:55:22.279Z,73.89
2022-12-11T14:57:51.599Z,73.77
2022-12-11T15:00:32.325Z,73.26
2022-12-11T15:03:06.358Z,73.89
2022-12-11T15:05:40.674Z,73.23
2022-12-11T15:08:10.888Z,72.34
2022-12-11T15:10:42.148Z,73.49
2022-12-11T15:13:10.193Z,73.39
2022-12-11T15:15:45.420Z,72.56
2022-12-11T15:18:30.778Z,73.00
2022-12-11T15:21:01.343Z,71.75
2022-12-11T15:23:29.797Z,72.06
2022-12-11T15:25:59.417Z,72.63
2022-12-11T15:28:34.930Z,71.88
2022-12-11T15:31:04.826Z,71.28
2022-12-11T15:33:34.559Z,71.04
2022-12-11T15:36:03.588Z,70.69
2022-12-11T15:38:35.015Z,71.20
2022-12-11T15:41:03.526Z,71.02
2022-12-11T15:43:34.589Z,70.87
2022-12-11T15:46:02.976Z,71.12
2022-12-11T15:48:29.666Z,70.46
2022-12-11T15:50:56.368Z,78.70
2022-12-11T15:53:22.936Z,73.13
2022-12-11T15:55:50.134Z,71.79
2022-12-11T15:58:21.481Z,72.08
2022-12-11T16:00:48.166Z,71.88
2022-12-11T16:03:17.093Z,71.20
2022-12-11T16:05:44.498Z,71.84
2022-12-11T16:08:16.938Z,72.21
2022-12-11T16:10:45.036Z,71.95
2022-12-11T16:13:12.810Z,73.28
2022-12-11T16:15:41.681Z,73.02
2022-12-11T16:18:11.592Z,73.28
2022-12-11T16:20:40.330Z,73.76
2022-12-11T16:23:08.352Z,72.41
2022-12-11T16:25:37.908Z,71.99
2022-12-11T16:28:05.866Z,72.36
2022-12-11T16:30:35.389Z,71.41
2022-12-11T16:33:08.613Z,70.94
2022-12-11T16:35:38.788Z,70.18
2022-12-11T16:38:05.377Z,69.62
2022-12-11T16:40:32.117Z,69.77
2022-12-11T16:42:58.718Z,69.02
2022-12-11T16:45:26.283Z,68.86
2022-12-11T16:47:53.490Z,69.38
2022-12-11T16:50:20.786Z,68.85
2022-12-11T16:52:47.731Z,69.53
2022-12-11T16:55:15.735Z,69.51
2022-12-11T16:57:42.547Z,68.98
2022-12-11T17:00:11.089Z,70.14
2022-12-11T17:02:38.190Z,70.63
2022-12-11T17:05:07.744Z,71.21
2022-12-11T17:07:35.518Z,72.02
2022-12-11T17:10:02.304Z,71.50
2022-12-11T17:12:29.342Z,71.26
2022-12-11T17:14:56.752Z,71.83
2022-12-11T17:17:24.287Z,71.49
2022-12-11T17:19:51.038Z,71.41
2022-12-11T17:22:17.797Z,71.37
2022-12-11T17:24:44.826Z,70.63
2022-12-11T17:27:11.588Z,71.26
2022-12-11T17:29:39.595Z,71.29
2022-12-11T17:32:06.402Z,70.45
2022-12-11T17:34:38.105Z,70.85
2022-12-11T17:37:06.108Z,70.87
2022-12-11T17:39:33.125Z,70.21
2022-12-11T17:42:00.757Z,70.86
2022-12-11T17:44:27.393Z,70.82
2022-12-11T17:46:54.078Z,69.39
2022-12-11T17:49:20.718Z,69.89
2022-12-11T17:51:47.610Z,70.20
2022-12-11T17:54:14.254Z,69.69
2022-12-11T17:56:40.970Z,69.71
2022-12-11T17:59:07.632Z,70.35
2022-12-11T18:01:34.691Z,70.94
2022-12-11T18:04:01.893Z,70.76
2022-12-11T18:06:29.089Z,70.45
2022-12-11T18:08:56.241Z,70.03
2022-12-11T18:11:23.809Z,69.52
2022-12-11T18:13:51.865Z,69.27
2022-12-11T18:16:29.171Z,70.16
2022-12-11T18:18:55.953Z,70.62
2022-12-11T18:21:26.173Z,70.09
2022-12-11T18:23:52.960Z,69.63
2022-12-11T18:26:20.519Z,69.44
2022-12-11T18:28:48.325Z,69.50
2022-12-11T18:31:15.973Z,70.10
2022-12-11T18:33:44.123Z,69.76
2022-12-11T18:36:13.064Z,69.31
2022-12-11T18:38:41.576Z,69.55
2022-12-11T18:41:10.700Z,69.78
2022-12-11T18:43:38.759Z,70.17
2022-12-11T18:46:12.391Z,70.35
2022-12-11T18:48:39.106Z,69.80
2022-12-11T18:51:12.061Z,70.18
2022-12-11T18:53:40.687Z,69.91
2022-12-11T18:56:13.344Z,69.61
2022-12-11T18:58:40.409Z,69.20
2022-12-11T19:01:21.696Z,69.02
2022-12-11T19:03:48.968Z,69.31
2022-12-11T19:06:18.435Z,69.44
2022-12-11T19:08:46.060Z,70.28
2022-12-11T19:11:20.166Z,70.04
2022-12-11T19:13:47.491Z,69.95
2022-12-11T19:16:19.858Z,70.27
2022-12-11T19:18:46.846Z,70.41
2022-12-11T19:21:15.081Z,70.58
2022-12-11T19:23:42.620Z,70.45
2022-12-11T19:26:18.741Z,69.58
2022-12-11T19:28:46.452Z,70.01
2022-12-11T19:31:16.182Z,70.32
2022-12-11T19:33:43.498Z,69.74
2022-12-11T19:36:12.471Z,70.02
2022-12-11T19:38:40.944Z,70.24
2022-12-11T19:41:28.749Z,71.32
2022-12-11T19:43:57.092Z,71.48
2022-12-11T19:46:24.804Z,71.63
2022-12-11T19:48:54.919Z,71.50
2022-12-11T19:51:30.701Z,70.72
2022-12-11T19:53:58.688Z,71.03
2022-12-11T19:56:25.471Z,70.81
2022-12-11T19:58:52.110Z,70.25
2022-12-11T20:01:31.729Z,69.48
2022-12-11T20:04:00.943Z,69.53
2022-12-11T20:06:29.330Z,69.76
2022-12-11T20:08:56.275Z,69.88
2022-12-11T20:11:23.025Z,69.50
2022-12-11T20:13:50.921Z,68.68
2022-12-11T20:16:33.343Z,69.15
2022-12-11T20:19:07.344Z,69.37
2022-12-11T20:21:34.033Z,69.10
2022-12-11T20:24:00.702Z,68.97
2022-12-11T20:26:27.457Z,68.84
2022-12-11T20:28:54.302Z,68.91
2022-12-11T20:31:24.120Z,69.19
2022-12-11T20:33:51.788Z,68.96
2022-12-11T20:36:20.756Z,69.45
2022-12-11T20:38:47.681Z,69.98
2022-12-11T20:41:18.041Z,69.42
2022-12-11T20:43:45.198Z,69.63
2022-12-11T20:46:14.150Z,69.65
2022-12-11T20:48:43.090Z,69.59
2022-12-11T20:51:12.270Z,69.21
2022-12-11T20:53:39.068Z,69.32
2022-12-11T20:56:27.594Z,69.74
2022-12-11T20:58:55.343Z,69.92
2022-12-11T21:01:24.119Z,69.14
2022-12-11T21:03:50.901Z,69.49
2022-12-11T21:06:21.237Z,69.05
2022-12-11T21:08:47.915Z,69.46
2022-12-11T21:11:15.825Z,69.49
2022-12-11T21:13:45.862Z,69.48
2022-12-11T21:16:12.904Z,69.47
2022-12-11T21:18:40.078Z,69.50
2022-12-11T21:21:07.029Z,69.71
2022-12-11T21:23:34.063Z,69.64
2022-12-11T21:26:00.867Z,69.73
2022-12-11T21:28:33.600Z,69.93
2022-12-11T21:31:07.858Z,69.62
2022-12-11T21:33:35.421Z,70.03
2022-12-11T21:36:02.801Z,69.05
2022-12-11T21:38:29.623Z,69.45
2022-12-11T21:40:56.653Z,69.34
2022-12-11T21:43:23.901Z,69.03
2022-12-11T21:46:06.821Z,68.84
2022-12-11T21:48:33.782Z,68.77
2022-12-11T21:51:12.600Z,69.45
2022-12-11T21:53:39.733Z,69.15
2022-12-11T21:56:13.335Z,69.35
2022-12-11T21:58:41.880Z,69.18
2022-12-11T22:01:30.013Z,69.48
2022-12-11T22:03:57.866Z,69.91
2022-12-11T22:06:24.558Z,69.79
2022-12-11T22:08:51.389Z,69.76
2022-12-11T22:11:21.705Z,69.98
2022-12-11T22:13:48.360Z,69.85
2022-12-11T22:16:15.099Z,69.83
2022-12-11T22:18:41.965Z,70.33
2022-12-11T22:21:08.685Z,70.63
2022-12-11T22:23:36.951Z,70.69
2022-12-11T22:26:03.694Z,71.24
2022-12-11T22:28:30.375Z,71.09
2022-12-11T22:30:57.014Z,71.10
2022-12-11T22:33:23.964Z,71.19
2022-12-11T22:35:58.643Z,71.89
2022-12-11T22:38:25.959Z,71.53
2022-12-11T22:40:53.847Z,71.34
2022-12-11T22:43:20.856Z,71.21
2022-12-11T22:45:48.946Z,71.14
2022-12-11T22:48:15.661Z,70.33
2022-12-11T22:50:43.289Z,69.16
2022-12-11T22:53:10.356Z,69.04
2022-12-11T22:55:40.193Z,69.74
2022-12-11T22:58:07.379Z,70.80
2022-12-11T23:00:34.311Z,70.87
2022-12-11T23:03:02.002Z,69.78
2022-12-11T23:05:29.103Z,70.63
2022-12-11T23:07:55.938Z,70.71
2022-12-11T23:10:22.716Z,69.77
2022-12-11T23:12:49.513Z,70.56
2022-12-11T23:15:16.296Z,69.33
2022-12-11T23:17:43.228Z,68.74
2022-12-11T23:20:39.878Z,69.38
2022-12-11T23:23:16.939Z,69.76
2022-12-11T23:25:43.831Z,69.55
2022-12-11T23:28:12.756Z,70.15
2022-12-11T23:30:39.501Z,70.56
2022-12-11T23:33:15.907Z,70.20
2022-12-11T23:35:42.548Z,70.02
2022-12-11T23:38:09.196Z,69.97
2022-12-11T23:41:10.152Z,70.00
2022-12-11T23:43:37.627Z,70.64
2022-12-11T23:46:12.590Z,70.30
2022-12-11T23:48:39.564Z,69.83
2022-12-11T23:51:09.488Z,70.92
2022-12-11T23:53:39.885Z,71.81
2022-12-11T23:56:10.632Z,71.65
2022-12-11T23:58:38.739Z,71.73
